Time;durP1;ratioP1;P1;durP2;ratioP2;P2;SDS_P1;SDS_P2;PMS_P1;PMS_P2;Temp;Humidity;BMP_temperature;BMP_pressure;BME280_temperature;BME280_humidity;BME280_pressure;Samples;Min_cycle;Max_cycle;Signal;HPM_P1;HPM_P2
2023/12/10 00:01:59;;;;;;;102.20;38.83;;;;;;;-1.02;100.00;99516.44;4180557;28;21791;-69
2023/12/10 00:04:26;;;;;;;106.90;39.73;;;;;;;-1.00;100.00;99525.19;4188751;28;20421;-70
2023/12/10 00:06:55;;;;;;;106.57;40.00;;;;;;;-1.01;100.00;99523.47;4201993;28;20238;-70
2023/12/10 00:09:22;;;;;;;100.00;38.93;;;;;;;-0.88;100.00;99517.41;4182476;28;20244;-67
2023/12/10 00:11:49;;;;;;;112.00;39.93;;;;;;;-0.94;100.00;99516.00;4197687;28;20233;-70
2023/12/10 00:14:16;;;;;;;109.03;40.43;;;;;;;-0.91;100.00;99515.81;4193210;28;20253;-69
2023/12/10 00:16:42;;;;;;;118.90;40.93;;;;;;;-0.92;100.00;99521.19;4191811;28;20344;-68
2023/12/10 00:19:09;;;;;;;103.23;38.80;;;;;;;-0.93;100.00;99507.06;4184497;28;20528;-71
2023/12/10 00:21:37;;;;;;;106.83;40.00;;;;;;;-0.94;100.00;99499.22;4186027;28;20239;-68
2023/12/10 00:24:05;;;;;;;113.70;40.37;;;;;;;-0.95;100.00;99501.00;4174875;28;20299;-70
2023/12/10 00:26:31;;;;;;;108.10;40.17;;;;;;;-0.89;100.00;99497.94;4188109;28;20270;-68
2023/12/10 00:28:58;;;;;;;115.97;43.60;;;;;;;-0.93;100.00;99492.91;4185138;28;20241;-69
2023/12/10 00:31:24;;;;;;;117.60;42.23;;;;;;;-0.93;100.00;99492.91;4193158;28;20241;-67
2023/12/10 00:33:51;;;;;;;115.63;41.20;;;;;;;-0.94;100.00;99483.28;4183494;28;20233;-68
2023/12/10 00:36:18;;;;;;;118.93;42.60;;;;;;;-0.93;100.00;99483.16;4191512;28;21942;-69
2023/12/10 00:38:45;;;;;;;105.03;41.77;;;;;;;-0.89;100.00;99489.97;4202443;28;20850;-67
2023/12/10 00:41:13;;;;;;;111.33;42.63;;;;;;;-0.88;100.00;99491.69;4183331;28;21236;-67
2023/12/10 00:43:40;;;;;;;123.30;42.43;;;;;;;-0.84;100.00;99497.66;4180492;28;20238;-69
2023/12/10 00:46:10;;;;;;;110.90;41.23;;;;;;;-0.86;100.00;99497.75;4189546;28;20526;-68
2023/12/10 00:48:37;;;;;;;115.30;40.37;;;;;;;-0.84;100.00;99500.31;4193593;28;20253;-70
2023/12/10 00:51:04;;;;;;;104.53;40.17;;;;;;;-0.78;100.00;99509.72;4186664;28;21524;-69
2023/12/10 00:53:31;;;;;;;109.20;42.07;;;;;;;-0.80;100.00;99505.34;4178259;28;20241;-68
2023/12/10 00:55:58;;;;;;;107.17;40.73;;;;;;;-0.79;100.00;99506.19;4190281;28;20242;-69
2023/12/10 00:58:24;;;;;;;101.13;39.97;;;;;;;-0.63;100.00;99511.38;4174920;28;21095;-69
2023/12/10 01:00:51;;;;;;;110.17;42.07;;;;;;;-0.59;100.00;99520.84;4174626;28;20291;-69
2023/12/10 01:03:18;;;;;;;112.37;42.27;;;;;;;-0.66;100.00;99514.22;4190227;28;20258;-70
2023/12/10 01:05:45;;;;;;;100.80;40.23;;;;;;;-0.70;100.00;99516.22;4181506;28;20677;-70
2023/12/10 01:08:12;;;;;;;106.47;41.27;;;;;;;-0.69;100.00;99512.63;4190460;28;20241;-69
2023/12/10 01:10:38;;;;;;;108.60;40.47;;;;;;;-0.65;100.00;99508.84;4180896;28;20243;-70
2023/12/10 01:13:05;;;;;;;117.07;42.93;;;;;;;-0.61;100.00;99509.50;4195287;28;21732;-71
2023/12/10 01:15:32;;;;;;;114.83;42.07;;;;;;;-0.66;100.00;99516.88;4195200;28;20233;-68
2023/12/10 01:18:02;;;;;;;113.80;41.27;;;;;;;-0.68;100.00;99522.31;4170039;28;20408;-70
2023/12/10 01:20:33;;;;;;;112.53;41.30;;;;;;;-0.64;100.00;99507.84;4186659;28;20232;-67
2023/12/10 01:23:04;;;;;;;112.10;40.50;;;;;;;-0.61;100.00;99512.16;4186688;28;20233;-68
2023/12/10 01:25:31;;;;;;;103.87;40.90;;;;;;;-0.69;100.00;99504.66;4187633;28;20241;-69
2023/12/10 01:27:57;;;;;;;101.20;41.53;;;;;;;-0.70;100.00;99507.41;4189039;28;20249;-70
2023/12/10 01:30:24;;;;;;;117.37;43.93;;;;;;;-0.71;100.00;99501.22;4184341;28;20345;-68
2023/12/10 01:32:53;;;;;;;110.17;41.27;;;;;;;-0.72;100.00;99504.00;4185817;28;20447;-69
2023/12/10 01:35:20;;;;;;;117.73;41.80;;;;;;;-0.76;100.00;99500.69;4185950;28;21673;-70
2023/12/10 01:37:48;;;;;;;123.30;44.33;;;;;;;-0.79;100.00;99487.56;4184860;28;23464;-71
2023/12/10 01:40:15;;;;;;;114.03;40.07;;;;;;;-0.72;100.00;99496.88;4189620;28;22281;-71
2023/12/10 01:42:41;;;;;;;119.67;41.87;;;;;;;-0.81;100.00;99500.13;4190326;28;20320;-70
2023/12/10 01:45:09;;;;;;;107.83;41.23;;;;;;;-0.81;100.00;99500.13;4179604;28;21156;-68
2023/12/10 01:47:39;;;;;;;114.83;41.67;;;;;;;-0.81;100.00;99511.59;4184026;28;20316;-69
2023/12/10 01:50:07;;;;;;;116.00;42.53;;;;;;;-0.75;100.00;99507.72;4184233;28;20229;-70
2023/12/10 01:52:35;;;;;;;117.17;40.17;;;;;;;-0.78;100.00;99507.88;4173326;28;20234;-69
2023/12/10 01:55:03;;;;;;;113.60;40.87;;;;;;;-0.75;100.00;99512.16;4169930;28;20535;-71
2023/12/10 01:57:32;;;;;;;111.23;39.90;;;;;;;-0.84;100.00;99506.50;4183500;28;21375;-69
2023/12/10 01:59:59;;;;;;;109.43;39.23;;;;;;;-0.83;100.00;99510.84;4191255;28;20231;-69
2023/12/10 02:02:27;;;;;;;101.83;38.47;;;;;;;-0.82;100.00;99515.19;4175749;28;20371;-69
2023/12/10 02:04:55;;;;;;;108.20;38.97;;;;;;;-0.83;100.00;99515.31;4180138;28;20361;-69
2023/12/10 02:07:24;;;;;;;102.67;39.00;;;;;;;-0.89;100.00;99518.34;4178352;28;20538;-68
2023/12/10 02:09:51;;;;;;;105.73;38.23;;;;;;;-0.92;100.00;99515.88;4167201;28;20342;-69
2023/12/10 02:12:18;;;;;;;91.33;35.60;;;;;;;-0.89;100.00;99526.34;4188004;28;25450;-71
2023/12/10 02:14:45;;;;;;;112.17;38.07;;;;;;;-0.92;100.00;99515.88;4178794;28;20248;-68
2023/12/10 02:17:12;;;;;;;109.43;37.23;;;;;;;-0.90;100.00;99514.00;4187845;28;22753;-67
2023/12/10 02:19:38;;;;;;;99.10;35.17;;;;;;;-0.92;100.00;99500.81;4185921;28;21751;-70
2023/12/10 02:22:05;;;;;;;93.27;34.57;;;;;;;-0.95;100.00;99495.69;4184801;28;20276;-69
2023/12/10 02:24:39;;;;;;;107.77;36.60;;;;;;;-0.94;100.00;99507.19;4190063;28;20680;-68
2023/12/10 02:27:06;;;;;;;91.50;33.33;;;;;;;-0.86;100.00;99494.22;4174065;28;20241;-69
2023/12/10 02:29:33;;;;;;;96.37;33.87;;;;;;;-0.90;100.00;99493.56;4187238;28;20232;-72
2023/12/10 02:31:59;;;;;;;97.83;33.30;;;;;;;-1.02;100.00;99497.03;4196420;28;21247;-68
2023/12/10 02:34:26;;;;;;;96.17;35.77;;;;;;;-1.07;100.00;99497.31;4181116;28;25096;-68
2023/12/10 02:36:53;;;;;;;98.50;33.47;;;;;;;-1.09;100.00;99488.56;4183930;28;20247;-66
2023/12/10 02:39:20;;;;;;;92.20;32.57;;;;;;;-0.91;100.00;99491.03;4182046;28;20229;-68
2023/12/10 02:41:47;;;;;;;91.87;33.00;;;;;;;-1.06;100.00;99485.75;4175489;28;20251;-67
2023/12/10 02:44:13;;;;;;;94.30;33.87;;;;;;;-1.10;100.00;99476.28;4179072;28;20959;-70
2023/12/10 02:46:58;;;;;;;89.13;32.73;;;;;;;-1.14;100.00;99469.44;4184020;28;20758;-69
2023/12/10 02:49:24;;;;;;;93.80;33.97;;;;;;;-1.14;100.00;99466.78;4182606;28;20685;-65
2023/12/10 02:51:51;;;;;;;86.13;31.93;;;;;;;-1.15;100.00;99452.66;4185181;28;20416;-67
2023/12/10 02:54:18;;;;;;;81.90;30.63;;;;;;;-1.06;100.00;99450.38;4210494;28;20251;-69
2023/12/10 02:56:45;;;;;;;81.77;30.33;;;;;;;-1.07;100.00;99451.31;4172254;28;20240;-69
2023/12/10 02:59:12;;;;;;;84.70;31.77;;;;;;;-1.15;100.00;99435.84;4187858;28;21134;-70
2023/12/10 03:01:39;;;;;;;83.30;31.07;;;;;;;-1.18;100.00;99446.69;4191242;28;20265;-69
2023/12/10 03:04:05;;;;;;;82.37;30.80;;;;;;;-1.16;100.00;99444.75;4190618;28;21502;-68
2023/12/10 03:06:32;;;;;;;83.43;30.17;;;;;;;-1.19;100.00;99437.84;4198311;28;20241;-70
2023/12/10 03:08:59;;;;;;;93.97;31.40;;;;;;;-1.19;100.00;99443.16;4191750;28;20237;-67
2023/12/10 03:11:25;;;;;;;81.57;29.80;;;;;;;-1.17;100.00;99443.91;4187815;28;20234;-71
2023/12/10 03:13:52;;;;;;;80.47;27.83;;;;;;;-1.15;100.00;99447.34;4183314;28;21119;-67
2023/12/10 03:16:18;;;;;;;77.33;27.50;;;;;;;-1.18;100.00;99442.22;4177477;28;22814;-68
2023/12/10 03:18:45;;;;;;;81.60;28.87;;;;;;;-1.14;100.00;99429.59;4189287;28;20241;-67
2023/12/10 03:21:12;;;;;;;73.77;27.77;;;;;;;-1.12;100.00;99431.19;4188435;28;20424;-68
2023/12/10 03:23:39;;;;;;;79.60;29.10;;;;;;;-1.09;100.00;99427.47;4179707;28;20253;-69
2023/12/10 03:26:05;;;;;;;75.43;29.00;;;;;;;-1.16;100.00;99427.03;4194497;28;21574;-68
2023/12/10 03:28:32;;;;;;;67.73;26.43;;;;;;;-1.19;100.00;99432.53;4186380;28;20240;-67
2023/12/10 03:31:00;;;;;;;73.00;27.50;;;;;;;-1.09;100.00;99431.97;4183523;28;20367;-68
2023/12/10 03:33:26;;;;;;;66.40;26.57;;;;;;;-1.09;100.00;99431.97;4186279;28;20245;-66
2023/12/10 03:35:53;;;;;;;73.57;26.53;;;;;;;-1.18;100.00;99422.78;4179951;28;20387;-68
2023/12/10 03:38:20;;;;;;;70.13;24.77;;;;;;;-1.15;100.00;99417.25;4186813;28;20395;-68
2023/12/10 03:40:47;;;;;;;75.10;27.27;;;;;;;-1.18;100.00;99413.00;4173586;28;20237;-67
2023/12/10 03:43:13;;;;;;;77.70;28.70;;;;;;;-1.22;100.00;99403.53;4190212;28;20246;-68
2023/12/10 03:45:40;;;;;;;74.90;26.37;;;;;;;-1.19;100.00;99398.00;4191150;28;20700;-68
2023/12/10 03:48:07;;;;;;;68.30;26.00;;;;;;;-1.25;100.00;99394.91;4183795;28;20382;-69
2023/12/10 03:50:34;;;;;;;68.57;26.17;;;;;;;-1.26;100.00;99396.69;4188904;28;20241;-67
2023/12/10 03:53:01;;;;;;;66.27;25.23;;;;;;;-1.25;100.00;99400.22;4169033;28;22663;-68
2023/12/10 03:55:27;;;;;;;65.83;24.83;;;;;;;-1.22;100.00;99405.31;4188180;28;20264;-67
2023/12/10 03:57:54;;;;;;;69.83;25.80;;;;;;;-1.26;100.00;99398.53;4196068;28;20336;-67
2023/12/10 04:00:21;;;;;;;65.83;24.23;;;;;;;-1.23;100.00;99407.13;4185329;28;21901;-68
2023/12/10 04:02:48;;;;;;;65.93;24.17;;;;;;;-1.25;100.00;99413.50;4184342;28;20288;-67
2023/12/10 04:05:14;;;;;;;61.10;24.03;;;;;;;-1.17;100.00;99411.22;4175515;28;25183;-66
2023/12/10 04:07:41;;;;;;;64.20;25.30;;;;;;;-1.26;100.00;99409.13;4191023;28;20233;-68
2023/12/10 04:10:09;;;;;;;67.57;24.37;;;;;;;-1.29;100.00;99407.53;4186215;28;21458;-67
2023/12/10 04:12:35;;;;;;;62.43;24.37;;;;;;;-1.21;100.00;99415.84;4185607;28;20234;-66
2023/12/10 04:15:04;;;;;;;68.60;25.60;;;;;;;-1.16;100.00;99420.88;4194113;28;21590;-67
2023/12/10 04:17:31;;;;;;;65.07;23.90;;;;;;;-1.12;100.00;99409.09;4189303;28;20288;-68
2023/12/10 04:19:58;;;;;;;64.43;24.27;;;;;;;-1.21;100.00;99404.38;4177994;28;20366;-66
2023/12/10 04:22:24;;;;;;;64.13;24.50;;;;;;;-1.22;100.00;99419.47;4195981;28;23359;-67
2023/12/10 04:24:51;;;;;;;66.83;25.47;;;;;;;-1.14;100.00;99425.16;4195997;28;22985;-66
2023/12/10 04:27:18;;;;;;;60.93;22.80;;;;;;;-1.11;100.00;99421.44;4187725;28;21743;-70
2023/12/10 04:29:44;;;;;;;57.27;23.17;;;;;;;-1.12;100.00;99425.03;4181048;28;21624;-67
2023/12/10 04:32:11;;;;;;;60.20;22.80;;;;;;;-1.15;100.00;99422.56;4195601;28;20533;-69
2023/12/10 04:34:38;;;;;;;67.33;24.53;;;;;;;-1.20;100.00;99422.03;4189895;28;21211;-68
2023/12/10 04:37:05;;;;;;;64.73;24.77;;;;;;;-1.22;100.00;99421.25;4178936;28;20229;-67
2023/12/10 04:39:32;;;;;;;65.23;23.37;;;;;;;-1.17;100.00;99417.38;4186168;28;20248;-68
2023/12/10 04:41:58;;;;;;;59.87;22.80;;;;;;;-1.19;100.00;99411.28;4189003;28;20364;-68
2023/12/10 04:44:25;;;;;;;66.30;23.50;;;;;;;-1.19;100.00;99411.28;4188343;28;20304;-67
2023/12/10 04:46:52;;;;;;;59.37;22.80;;;;;;;-1.19;100.00;99403.31;4182524;28;22386;-69
2023/12/10 04:49:18;;;;;;;62.90;23.63;;;;;;;-1.26;100.00;99403.81;4181019;28;20245;-67
2023/12/10 04:51:45;;;;;;;59.40;21.73;;;;;;;-1.34;100.00;99405.16;4183444;28;20229;-66
2023/12/10 04:54:12;;;;;;;61.10;21.70;;;;;;;-1.34;100.00;99402.50;4183939;28;22564;-67
2023/12/10 04:56:39;;;;;;;54.30;20.97;;;;;;;-1.32;100.00;99410.38;4181559;28;21583;-67
2023/12/10 04:59:06;;;;;;;55.03;21.50;;;;;;;-1.38;100.00;99411.59;4175723;28;20241;-67
2023/12/10 05:01:33;;;;;;;56.10;21.87;;;;;;;-1.37;100.00;99415.13;4190862;28;21147;-67
2023/12/10 05:03:59;;;;;;;52.00;20.80;;;;;;;-1.42;100.00;99427.81;4194678;28;20233;-67
2023/12/10 05:06:26;;;;;;;51.87;20.77;;;;;;;-1.50;100.00;99426.50;4172765;28;20237;-69
2023/12/10 05:08:53;;;;;;;50.20;19.93;;;;;;;-1.55;100.00;99423.28;4187327;28;21041;-68
2023/12/10 05:11:20;;;;;;;49.10;19.87;;;;;;;-1.46;100.00;99428.03;4178775;28;20233;-68
2023/12/10 05:13:46;;;;;;;51.40;20.90;;;;;;;-1.49;100.00;99430.03;4186891;28;20936;-68
2023/12/10 05:16:13;;;;;;;55.13;21.30;;;;;;;-1.49;100.00;99433.50;4183886;28;21758;-68
2023/12/10 05:18:40;;;;;;;53.63;20.77;;;;;;;-1.48;100.00;99429.91;4192152;28;20779;-66
2023/12/10 05:21:07;;;;;;;46.60;19.37;;;;;;;-1.47;100.00;99431.63;4185868;28;20482;-66
2023/12/10 05:23:34;;;;;;;48.17;19.53;;;;;;;-1.48;100.00;99423.78;4181574;28;22115;-69
2023/12/10 05:26:01;;;;;;;50.03;19.80;;;;;;;-1.55;100.00;99422.44;4186489;28;20240;-69
2023/12/10 05:28:27;;;;;;;58.37;20.70;;;;;;;-1.62;100.00;99425.44;4190185;28;21810;-66
2023/12/10 05:30:54;;;;;;;49.33;19.10;;;;;;;-1.59;100.00;99427.09;4187238;28;21586;-68
2023/12/10 05:33:21;;;;;;;47.80;19.13;;;;;;;-1.51;100.00;99431.91;4195941;28;20565;-66
2023/12/10 05:35:47;;;;;;;46.70;19.20;;;;;;;-1.59;100.00;99424.44;4188182;28;20249;-67
2023/12/10 05:38:14;;;;;;;50.00;19.63;;;;;;;-1.61;100.00;99421.00;4189298;28;20245;-67
2023/12/10 05:40:41;;;;;;;50.43;18.90;;;;;;;-1.60;100.00;99428.03;4184119;28;22754;-66
2023/12/10 05:43:07;;;;;;;55.40;21.20;;;;;;;-1.67;100.00;99437.31;4187845;28;20243;-68
2023/12/10 05:45:34;;;;;;;55.77;19.70;;;;;;;-1.66;100.00;99441.69;4178985;28;20458;-67
2023/12/10 05:48:01;;;;;;;55.00;19.90;;;;;;;-1.69;100.00;99441.88;4182601;28;20409;-68
2023/12/10 05:50:28;;;;;;;55.67;20.13;;;;;;;-1.74;100.00;99452.75;4183291;28;21020;-66
2023/12/10 05:52:54;;;;;;;44.20;18.10;;;;;;;-1.48;100.00;99463.59;4183388;28;20229;-66
2023/12/10 05:55:21;;;;;;;48.37;18.33;;;;;;;-1.73;99.86;99462.41;4185676;28;20344;-68
2023/12/10 05:57:48;;;;;;;50.63;18.97;;;;;;;-1.91;100.00;99461.75;4179089;28;22898;-68
2023/12/10 06:00:15;;;;;;;49.53;18.37;;;;;;;-2.03;100.00;99465.09;4188071;28;20302;-67
2023/12/10 06:02:41;;;;;;;45.87;19.23;;;;;;;-2.14;100.00;99479.00;4188728;28;20605;-68
2023/12/10 06:05:09;;;;;;;44.80;17.63;;;;;;;-2.13;100.00;99480.72;4175747;28;20245;-67
2023/12/10 06:07:38;;;;;;;45.00;18.53;;;;;;;-2.06;100.00;99484.72;4176015;28;21357;-67
2023/12/10 06:10:05;;;;;;;46.57;18.53;;;;;;;-2.10;100.00;99480.53;4186013;28;22297;-68
2023/12/10 06:12:32;;;;;;;49.43;19.97;;;;;;;-2.30;100.00;99481.69;4187159;28;20269;-67
2023/12/10 06:14:59;;;;;;;46.33;18.13;;;;;;;-2.27;100.00;99485.03;4186537;28;20426;-66
2023/12/10 06:17:26;;;;;;;46.47;18.40;;;;;;;-2.07;100.00;99493.59;4179357;28;20244;-67
2023/12/10 06:19:53;;;;;;;47.10;18.00;;;;;;;-2.16;100.00;99499.47;4183198;28;20486;-67
2023/12/10 06:22:20;;;;;;;49.47;17.87;;;;;;;-2.23;100.00;99502.44;4185001;28;20301;-66
2023/12/10 06:24:46;;;;;;;53.57;20.63;;;;;;;-2.28;100.00;99506.34;4183170;28;20243;-66
2023/12/10 06:27:13;;;;;;;49.17;19.60;;;;;;;-2.13;100.00;99509.88;4186616;28;20233;-68
2023/12/10 06:29:41;;;;;;;47.97;18.13;;;;;;;-2.19;100.00;99499.63;4200859;28;20241;-68
2023/12/10 06:32:07;;;;;;;53.93;19.07;;;;;;;-2.34;100.00;99504.88;4185840;28;20589;-69
2023/12/10 06:34:34;;;;;;;51.43;19.07;;;;;;;-2.34;100.00;99499.59;4181960;28;20469;-67
2023/12/10 06:37:01;;;;;;;52.07;19.73;;;;;;;-2.44;100.00;99491.31;4185040;28;21902;-67
2023/12/10 06:39:28;;;;;;;54.10;19.37;;;;;;;-2.47;100.00;99493.28;4185956;28;20234;-69
2023/12/10 06:41:54;;;;;;;51.37;18.83;;;;;;;-2.42;100.00;99484.09;4179097;28;20241;-68
2023/12/10 06:44:21;;;;;;;53.20;19.23;;;;;;;-2.42;100.00;99489.41;4183254;28;20267;-69
2023/12/10 06:46:49;;;;;;;55.47;20.77;;;;;;;-2.44;100.00;99501.91;4191046;28;25505;-67
2023/12/10 06:49:16;;;;;;;59.20;21.87;;;;;;;-2.41;100.00;99508.84;4200804;28;21224;-69
2023/12/10 06:51:43;;;;;;;54.43;19.93;;;;;;;-2.46;100.00;99498.50;4183259;28;20295;-67
2023/12/10 06:54:10;;;;;;;53.90;20.73;;;;;;;-2.44;100.00;99507.22;4184927;28;23045;-67
2023/12/10 06:56:40;;;;;;;54.13;19.93;;;;;;;-2.42;100.00;99494.72;4191868;28;20309;-66
2023/12/10 06:59:09;;;;;;;51.87;18.87;;;;;;;-2.41;100.00;99498.22;4195430;28;20241;-68
2023/12/10 07:01:37;;;;;;;56.83;20.17;;;;;;;-2.41;100.00;99496.41;4188977;28;20252;-66
2023/12/10 07:04:07;;;;;;;55.90;20.03;;;;;;;-2.37;100.00;99493.59;4196339;28;20469;-70
2023/12/10 07:06:35;;;;;;;55.87;21.83;;;;;;;-2.35;100.00;99512.94;4191707;28;20233;-67
2023/12/10 07:09:03;;;;;;;61.50;20.77;;;;;;;-2.28;100.00;99515.13;4190586;28;20245;-68
2023/12/10 07:11:31;;;;;;;60.10;21.50;;;;;;;-2.26;100.00;99507.94;4201520;28;22864;-69
2023/12/10 07:13:57;;;;;;;53.37;21.00;;;;;;;-2.25;100.00;99500.84;4196995;28;21773;-69
2023/12/10 07:16:25;;;;;;;60.53;22.00;;;;;;;-2.28;100.00;99504.53;4196808;28;20236;-71
2023/12/10 07:18:51;;;;;;;65.00;22.03;;;;;;;-2.28;100.00;99511.63;4206932;28;20288;-66
2023/12/10 07:21:18;;;;;;;64.73;23.27;;;;;;;-2.17;100.00;99508.38;4207368;28;22205;-67
2023/12/10 07:23:45;;;;;;;65.73;22.83;;;;;;;-2.08;100.00;99506.03;4200193;28;20333;-70
2023/12/10 07:26:12;;;;;;;66.00;22.77;;;;;;;-2.17;100.00;99509.19;4207187;28;20635;-69
2023/12/10 07:28:39;;;;;;;65.50;22.37;;;;;;;-2.27;100.00;99518.66;4202764;28;20342;-68
2023/12/10 07:31:05;;;;;;;63.67;22.90;;;;;;;-2.21;100.00;99528.91;4198782;28;25586;-71
2023/12/10 07:33:32;;;;;;;60.37;22.67;;;;;;;-2.19;100.00;99520.84;4193215;28;20230;-66
2023/12/10 07:35:59;;;;;;;69.23;24.37;;;;;;;-2.13;100.00;99533.75;4208798;28;20233;-68
2023/12/10 07:38:26;;;;;;;64.10;23.00;;;;;;;-2.08;100.00;99539.66;4216082;28;20242;-68
2023/12/10 07:40:53;;;;;;;67.87;22.80;;;;;;;-2.04;100.00;99529.72;4203061;28;20237;-68
2023/12/10 07:43:19;;;;;;;68.40;24.60;;;;;;;-2.16;100.00;99540.09;4218004;28;20229;-67
2023/12/10 07:45:46;;;;;;;65.93;21.90;;;;;;;-1.99;100.00;99543.56;4197364;28;20316;-70
2023/12/10 07:48:14;;;;;;;64.10;22.10;;;;;;;-1.82;100.00;99547.88;4193987;28;21841;-67
2023/12/10 07:50:41;;;;;;;58.43;20.73;;;;;;;-1.79;100.00;99547.69;4197530;28;20520;-66
2023/12/10 07:53:08;;;;;;;69.27;23.70;;;;;;;-1.95;100.00;99550.38;4212010;28;25661;-69
2023/12/10 07:55:36;;;;;;;69.03;24.40;;;;;;;-2.00;100.00;99542.69;4206691;28;20233;-70
2023/12/10 07:58:02;;;;;;;65.03;22.60;;;;;;;-1.97;100.00;99539.03;4194408;28;25313;-67
2023/12/10 08:00:29;;;;;;;61.33;22.70;;;;;;;-2.01;100.00;99546.31;4215069;28;22237;-67
2023/12/10 08:02:56;;;;;;;65.27;22.80;;;;;;;-1.85;100.00;99556.03;4212065;28;21666;-67
2023/12/10 08:05:23;;;;;;;61.07;21.53;;;;;;;-1.74;100.00;99558.88;4215690;28;21326;-69
2023/12/10 08:07:50;;;;;;;58.63;22.73;;;;;;;-1.85;100.00;99556.88;4190914;28;20418;-68
2023/12/10 08:10:20;;;;;;;62.30;22.87;;;;;;;-1.85;100.00;99561.31;4224964;28;21250;-69
2023/12/10 08:12:46;;;;;;;73.83;27.10;;;;;;;-1.77;100.00;99570.53;4193955;28;22222;-68
2023/12/10 08:15:13;;;;;;;68.07;24.20;;;;;;;-1.81;100.00;99562.84;4193281;28;20326;-68
2023/12/10 08:17:41;;;;;;;60.53;21.87;;;;;;;-1.89;100.00;99563.31;4189084;28;20236;-66
2023/12/10 08:20:10;;;;;;;60.40;22.63;;;;;;;-1.81;100.00;99569.00;4183983;28;20242;-71
2023/12/10 08:22:37;;;;;;;63.70;23.83;;;;;;;-1.82;100.00;99566.44;4195858;28;20239;-67
2023/12/10 08:25:04;;;;;;;56.77;22.67;;;;;;;-1.88;100.00;99557.03;4192513;28;21272;-66
2023/12/10 08:27:31;;;;;;;64.23;24.17;;;;;;;-1.85;100.00;99562.16;4184861;28;20232;-69
2023/12/10 08:29:58;;;;;;;64.23;21.83;;;;;;;-1.73;100.00;99554.41;4182749;28;20225;-66
2023/12/10 08:32:27;;;;;;;63.50;23.90;;;;;;;-1.87;100.00;99550.78;4200804;28;21773;-66
2023/12/10 08:34:58;;;;;;;51.73;20.23;;;;;;;-1.93;100.00;99546.69;4186928;28;22232;-70
2023/12/10 08:37:25;;;;;;;54.97;20.73;;;;;;;-1.86;100.00;99546.34;4183149;28;20233;-67
2023/12/10 08:39:52;;;;;;;57.63;21.77;;;;;;;-1.77;100.00;99545.78;4188858;28;20244;-66
2023/12/10 08:42:19;;;;;;;57.07;22.30;;;;;;;-1.74;100.00;99550.09;4193948;28;20237;-70
2023/12/10 08:44:45;;;;;;;57.13;22.70;;;;;;;-1.78;100.00;99533.50;4185157;28;20654;-68
2023/12/10 08:47:12;;;;;;;66.40;23.60;;;;;;;-1.78;99.33;99534.34;4184575;28;20230;-68
2023/12/10 08:49:39;;;;;;;61.37;23.33;;;;;;;-1.69;99.60;99530.25;4189467;28;20253;-69
2023/12/10 08:52:06;;;;;;;56.87;22.30;;;;;;;-1.69;98.91;99537.38;4172443;28;20631;-69
2023/12/10 08:54:32;;;;;;;58.67;22.20;;;;;;;-1.72;98.87;99540.22;4184969;28;21090;-67
2023/12/10 08:56:59;;;;;;;58.77;22.20;;;;;;;-1.62;98.72;99542.22;4190469;28;21811;-68
2023/12/10 08:59:26;;;;;;;58.53;21.33;;;;;;;-1.30;98.02;99547.38;4183818;28;22725;-66
2023/12/10 09:01:52;;;;;;;61.03;22.70;;;;;;;-1.37;97.15;99540.75;4203972;28;20353;-69
2023/12/10 09:04:19;;;;;;;68.07;23.60;;;;;;;-1.29;96.11;99546.44;4192436;28;22499;-66
2023/12/10 09:06:46;;;;;;;67.40;23.63;;;;;;;-1.22;95.94;99551.38;4186924;28;20250;-68
2023/12/10 09:09:12;;;;;;;53.77;21.10;;;;;;;-1.19;95.22;99545.88;4201137;28;20247;-67
2023/12/10 09:11:39;;;;;;;53.13;21.23;;;;;;;-1.33;95.54;99547.59;4207408;28;20241;-68
2023/12/10 09:14:07;;;;;;;65.97;23.37;;;;;;;-1.38;96.83;99559.44;4186496;28;20234;-69
2023/12/10 09:16:34;;;;;;;59.43;22.60;;;;;;;-1.31;95.65;99555.47;4178353;28;20236;-68
2023/12/10 09:19:01;;;;;;;60.17;23.97;;;;;;;-1.50;96.61;99553.91;4195884;28;20285;-67
2023/12/10 09:21:28;;;;;;;63.57;24.03;;;;;;;-1.41;96.89;99551.63;4189695;28;22223;-66
2023/12/10 09:23:56;;;;;;;65.17;23.50;;;;;;;-1.31;96.69;99547.50;4182371;28;21750;-68
2023/12/10 09:26:23;;;;;;;64.90;23.57;;;;;;;-1.19;96.87;99541.41;4185005;28;24373;-70
2023/12/10 09:28:49;;;;;;;63.33;23.70;;;;;;;-1.22;96.03;99543.41;4192643;28;21171;-68
2023/12/10 09:31:16;;;;;;;63.27;23.37;;;;;;;-1.19;95.88;99541.41;4193602;28;20306;-74
2023/12/10 09:33:43;;;;;;;70.67;25.63;;;;;;;-1.24;95.22;99537.31;4176280;28;20822;-70
2023/12/10 09:36:10;;;;;;;72.53;25.97;;;;;;;-1.32;95.74;99532.50;4189226;28;20878;-66
2023/12/10 09:38:36;;;;;;;63.83;24.30;;;;;;;-1.29;96.36;99535.81;4194239;28;21509;-67
2023/12/10 09:41:03;;;;;;;67.70;26.00;;;;;;;-1.27;95.48;99541.03;4184344;28;22082;-67
2023/12/10 09:43:30;;;;;;;70.37;24.73;;;;;;;-1.33;96.29;99549.38;4177638;28;24647;-68
2023/12/10 09:45:57;;;;;;;72.70;25.93;;;;;;;-1.36;96.30;99542.47;4188457;28;20237;-65
2023/12/10 09:48:24;;;;;;;68.37;25.37;;;;;;;-1.30;95.62;99541.25;4176313;28;20240;-69
2023/12/10 09:50:50;;;;;;;63.20;25.20;;;;;;;-0.99;94.77;99539.34;4185064;28;21600;-66
2023/12/10 09:53:17;;;;;;;63.83;25.60;;;;;;;-1.00;93.93;99540.28;4182577;28;20241;-68
2023/12/10 09:55:44;;;;;;;71.70;26.77;;;;;;;-1.32;95.68;99537.81;4178774;28;20229;-66
2023/12/10 09:58:11;;;;;;;64.77;25.70;;;;;;;-1.18;95.64;99544.94;4186233;28;20668;-66
2023/12/10 10:00:37;;;;;;;72.97;27.27;;;;;;;-1.14;95.64;99536.69;4184901;28;20298;-69
2023/12/10 10:03:08;;;;;;;69.03;26.67;;;;;;;-1.22;95.61;99540.75;4180974;28;20272;-70
2023/12/10 10:05:36;;;;;;;76.00;27.90;;;;;;;-1.15;95.45;99536.78;4173772;28;21133;-69
2023/12/10 10:08:03;;;;;;;69.00;27.63;;;;;;;-1.08;95.66;99546.06;4189799;28;20233;-67
2023/12/10 10:10:30;;;;;;;75.17;29.13;;;;;;;-0.98;95.02;99547.22;4169996;28;20316;-72
2023/12/10 10:12:57;;;;;;;70.53;27.57;;;;;;;-0.91;94.76;99539.72;4180104;28;20637;-70
2023/12/10 10:15:28;;;;;;;73.93;25.83;;;;;;;-0.78;93.96;99539.78;4189018;28;20297;-68
2023/12/10 10:17:55;;;;;;;71.40;27.73;;;;;;;-0.67;93.52;99544.41;4177133;28;20546;-69
2023/12/10 10:20:24;;;;;;;70.50;26.10;;;;;;;-0.71;92.42;99542.91;4182204;28;20268;-70
2023/12/10 10:22:52;;;;;;;74.17;26.30;;;;;;;-1.02;94.01;99534.22;4184338;28;20866;-73
2023/12/10 10:25:20;;;;;;;71.30;25.83;;;;;;;-0.97;93.36;99540.06;4188993;28;20590;-69
2023/12/10 10:27:50;;;;;;;82.23;30.67;;;;;;;-0.96;94.08;99540.00;4176665;28;21252;-69
2023/12/10 10:30:17;;;;;;;78.97;28.83;;;;;;;-1.03;94.04;99525.41;4175544;28;20233;-68
2023/12/10 10:32:46;;;;;;;78.27;29.20;;;;;;;-0.94;94.03;99525.78;4181981;28;20474;-70
2023/12/10 10:35:13;;;;;;;75.17;29.37;;;;;;;-0.93;93.81;99523.00;4184221;28;21650;-67
2023/12/10 10:37:42;;;;;;;81.47;29.27;;;;;;;-1.07;94.02;99523.03;4183549;28;21798;-68
2023/12/10 10:40:10;;;;;;;67.97;27.03;;;;;;;-1.07;94.35;99518.56;4188377;28;21829;-69
2023/12/10 10:42:37;;;;;;;64.53;26.43;;;;;;;-0.96;94.21;99520.53;4191903;28;21722;-67
2023/12/10 10:45:04;;;;;;;64.80;26.07;;;;;;;-1.04;94.45;99523.69;4184879;28;21203;-69
2023/12/10 10:47:34;;;;;;;74.67;25.73;;;;;;;-1.01;94.07;99507.53;4199497;28;21101;-69
2023/12/10 10:50:01;;;;;;;68.00;25.27;;;;;;;-0.92;93.72;99519.41;4190299;28;20241;-70
2023/12/10 10:52:48;;;;;;;67.47;25.70;;;;;;;-0.83;92.80;99505.53;4184939;28;20238;-69
2023/12/10 10:55:16;;;;;;;65.17;24.73;;;;;;;-0.84;93.69;99509.16;4192851;28;20426;-67
2023/12/10 10:57:44;;;;;;;67.80;26.80;;;;;;;-0.81;93.29;99508.94;4190850;28;20300;-66
2023/12/10 11:00:32;;;;;;;60.60;24.10;;;;;;;-0.79;93.51;99506.19;4176777;28;20308;-68
2023/12/10 11:03:02;;;;;;;66.50;25.83;;;;;;;-0.77;92.77;99512.25;4186435;28;20237;-68
2023/12/10 11:05:34;;;;;;;62.63;24.40;;;;;;;-0.72;92.37;99506.66;4180811;28;20264;-69
2023/12/10 11:08:06;;;;;;;61.83;24.30;;;;;;;-0.58;92.17;99511.09;4199819;28;20237;-70
2023/12/10 11:10:34;;;;;;;59.30;24.27;;;;;;;-0.84;92.82;99505.63;4183226;28;20717;-69